Time;durP1;ratioP1;P1;durP2;ratioP2;P2;SDS_P1;SDS_P2;PMS_P1;PMS_P2;Temp;Humidity;BMP_temperature;BMP_pressure;BME280_temperature;BME280_humidity;BME280_pressure;Samples;Min_cycle;Max_cycle;Signal;HPM_P1;HPM_P2
2022/02/28 00:00:15;;;;;;;16.07;8.57;;;-4.30;96.30;;;;;;4938392;29;20491;-74
2022/02/28 00:02:41;;;;;;;12.97;9.20;;;-4.20;96.30;;;;;;4938224;29;20458;-74
2022/02/28 00:05:08;;;;;;;14.60;9.30;;;-4.20;96.30;;;;;;4955578;29;20471;-74
2022/02/28 00:07:33;;;;;;;11.67;8.53;;;-4.10;96.30;;;;;;4955274;29;20453;-74
2022/02/28 00:09:59;;;;;;;14.50;8.30;;;-4.20;96.30;;;;;;4955475;29;20450;-74
2022/02/28 00:12:25;;;;;;;13.17;7.93;;;-4.20;96.30;;;;;;4938147;29;20202;-74
2022/02/28 00:14:51;;;;;;;15.33;8.90;;;-4.40;96.30;;;;;;4955344;29;20945;-74
2022/02/28 00:17:16;;;;;;;12.50;8.70;;;-4.50;96.30;;;;;;4955178;29;20245;-74
2022/02/28 00:19:41;;;;;;;11.73;8.30;;;-4.40;96.30;;;;;;4955104;29;20210;-74
2022/02/28 00:22:07;;;;;;;13.40;8.37;;;-4.30;96.30;;;;;;4955190;29;20199;-74
2022/02/28 00:24:32;;;;;;;21.17;8.23;;;-4.30;96.30;;;;;;4937916;29;20664;-74
2022/02/28 00:26:58;;;;;;;10.80;8.00;;;-4.20;96.30;;;;;;4955130;29;20833;-74
2022/02/28 00:29:23;;;;;;;13.77;8.57;;;-4.00;96.30;;;;;;4937459;29;20266;-74
2022/02/28 00:31:49;;;;;;;14.50;8.57;;;-4.00;96.30;;;;;;4954947;29;20241;-75
2022/02/28 00:34:14;;;;;;;11.70;8.90;;;-4.00;96.30;;;;;;4954986;29;20257;-74
2022/02/28 00:36:40;;;;;;;10.47;7.77;;;-4.00;96.30;;;;;;4954940;29;20179;-74
2022/02/28 00:39:06;;;;;;;13.43;8.17;;;-4.00;96.30;;;;;;4954639;29;20210;-75
2022/02/28 00:41:31;;;;;;;8.10;6.93;;;-4.10;96.30;;;;;;4954499;29;20201;-73
2022/02/28 00:43:57;;;;;;;14.67;8.03;;;-4.10;96.30;;;;;;4947529;29;20826;-74
2022/02/28 00:46:22;;;;;;;11.13;7.20;;;-4.10;96.30;;;;;;4943372;29;20190;-74
2022/02/28 00:48:48;;;;;;;10.10;7.20;;;-4.20;96.30;;;;;;4935496;29;20251;-73
2022/02/28 00:51:13;;;;;;;11.77;7.53;;;-4.30;96.30;;;;;;4935591;29;20196;-73
2022/02/28 00:53:39;;;;;;;12.13;7.50;;;-4.40;96.30;;;;;;4935494;29;20668;-74
2022/02/28 00:56:04;;;;;;;13.67;8.57;;;-4.60;96.30;;;;;;4935566;29;20172;-73
2022/02/28 00:58:31;;;;;;;9.80;5.93;;;-4.60;96.30;;;;;;4934686;29;20240;-74
2022/02/28 05:02:09;;;;;;;10.73;7.30;;;-6.40;96.30;;;;;;5131441;23;20532;-72
2022/02/28 05:04:35;;;;;;;12.93;7.80;;;-6.50;96.30;;;;;;4954382;29;20501;-73
2022/02/28 05:07:00;;;;;;;12.57;7.90;;;-6.40;96.30;;;;;;4954058;29;20178;-73
2022/02/28 05:09:26;;;;;;;13.03;8.73;;;-6.40;96.30;;;;;;4953834;29;20317;-73
2022/02/28 05:11:51;;;;;;;17.00;8.70;;;-6.40;96.30;;;;;;4954005;29;20247;-72
2022/02/28 05:14:16;;;;;;;10.40;6.10;;;-6.50;96.30;;;;;;4938524;29;20185;-73
2022/02/28 05:16:42;;;;;;;10.87;7.33;;;-6.60;96.30;;;;;;4954809;29;20179;-72
2022/02/28 05:19:08;;;;;;;11.50;5.83;;;-6.60;96.30;;;;;;4954126;29;20253;-73
2022/02/28 05:29:19;;;;;;;10.47;7.83;;;-6.60;96.30;;;;;;5467434;23;20490;-73
2022/02/28 05:31:45;;;;;;;10.20;6.90;;;-6.70;96.30;;;;;;4936133;29;20447;-74
2022/02/28 05:34:10;;;;;;;15.97;8.47;;;-6.70;96.30;;;;;;4917791;29;20188;-74
2022/02/28 05:36:36;;;;;;;15.90;7.67;;;-6.60;96.30;;;;;;4934717;29;20263;-74
2022/02/28 05:39:02;;;;;;;16.00;8.67;;;-6.50;96.30;;;;;;4934060;29;20176;-75
2022/02/28 05:41:27;;;;;;;22.80;11.60;;;-6.40;96.30;;;;;;4917495;29;20191;-74
2022/02/28 05:43:53;;;;;;;14.27;7.73;;;-6.30;96.30;;;;;;4934462;29;20466;-75
2022/02/28 05:46:18;;;;;;;10.60;7.30;;;-6.20;96.30;;;;;;4917505;29;20263;-74
2022/02/28 05:48:44;;;;;;;12.93;7.10;;;-6.10;96.30;;;;;;4916821;29;20168;-75
2022/02/28 05:51:09;;;;;;;15.20;7.23;;;-6.00;96.30;;;;;;4917360;29;20200;-75
2022/02/28 05:53:35;;;;;;;10.27;6.10;;;-5.90;96.30;;;;;;4917327;29;20663;-75
2022/02/28 05:56:00;;;;;;;26.57;12.17;;;-5.90;96.30;;;;;;4934517;29;20175;-75
2022/02/28 05:58:26;;;;;;;32.63;15.60;;;-5.90;96.30;;;;;;4933800;29;20172;-75
2022/02/28 06:00:51;;;;;;;16.30;11.53;;;-5.90;96.30;;;;;;4917311;29;20346;-75
2022/02/28 06:03:17;;;;;;;13.13;8.73;;;-5.90;96.30;;;;;;4917426;29;20218;-75
2022/02/28 06:05:43;;;;;;;14.83;8.87;;;-5.90;96.30;;;;;;4934473;29;20543;-75
2022/02/28 06:08:08;;;;;;;12.83;8.17;;;-5.90;96.30;;;;;;4913213;29;20176;-75
2022/02/28 06:10:34;;;;;;;13.50;6.50;;;-5.90;96.30;;;;;;4918652;29;20208;-76
2022/02/28 06:12:59;;;;;;;13.17;7.30;;;-5.80;96.30;;;;;;4915458;29;20212;-75
2022/02/28 06:15:25;;;;;;;19.20;9.60;;;-5.80;96.30;;;;;;4915078;29;20730;-75
2022/02/28 06:17:50;;;;;;;44.03;19.30;;;-5.70;96.30;;;;;;4914815;29;20275;-75
2022/02/28 06:20:16;;;;;;;62.53;29.07;;;-5.60;96.30;;;;;;4915187;29;20180;-76
2022/02/28 06:22:43;;;;;;;30.33;13.60;;;-4.90;96.30;;;;;;4913967;29;20210;-75
2022/02/28 06:25:09;;;;;;;25.50;13.20;;;-4.20;96.30;;;;;;4915279;29;20654;-75
2022/02/28 06:27:34;;;;;;;17.17;11.70;;;-3.50;96.30;;;;;;4914776;29;20417;-74
2022/02/28 06:30:00;;;;;;;12.33;9.00;;;-3.00;96.30;;;;;;4915037;29;20200;-74
2022/02/28 06:32:25;;;;;;;12.57;8.30;;;-2.70;96.30;;;;;;4915128;29;20251;-73
2022/02/28 06:34:51;;;;;;;12.43;7.57;;;-2.80;96.30;;;;;;4913890;29;20253;-73
2022/02/28 06:37:16;;;;;;;10.40;7.27;;;-3.10;96.30;;;;;;4915066;29;20274;-73
2022/02/28 06:39:45;;;;;;;16.90;8.57;;;-3.50;96.30;;;;;;4926825;29;20203;-74
2022/02/28 06:42:10;;;;;;;14.50;8.43;;;-3.80;96.30;;;;;;4933972;29;20430;-74
2022/02/28 06:44:36;;;;;;;17.77;10.30;;;-4.00;96.30;;;;;;4934041;29;20765;-74
2022/02/28 06:47:02;;;;;;;31.13;11.00;;;-4.10;96.30;;;;;;4933855;29;20199;-73
2022/02/28 06:49:28;;;;;;;32.17;12.13;;;-4.20;96.30;;;;;;4916378;29;20177;-76
2022/02/28 06:51:53;;;;;;;31.83;13.20;;;-4.20;96.30;;;;;;4916655;29;20450;-73
2022/02/28 06:54:18;;;;;;;25.60;12.50;;;-4.20;96.30;;;;;;4933682;29;20172;-73
2022/02/28 06:56:44;;;;;;;26.50;14.17;;;-4.10;96.30;;;;;;4918845;29;20174;-74
2022/02/28 06:59:10;;;;;;;21.53;13.10;;;-4.00;96.30;;;;;;4915952;29;20271;-74
2022/02/28 07:01:36;;;;;;;22.57;12.90;;;-4.00;96.30;;;;;;4900088;29;20215;-76
2022/02/28 07:04:03;;;;;;;23.53;13.00;;;-4.00;96.30;;;;;;4902954;29;20254;-74
2022/02/28 07:06:29;;;;;;;51.10;21.80;;;-3.90;96.30;;;;;;4927330;29;20479;-75
2022/02/28 07:08:55;;;;;;;27.00;15.07;;;-3.80;96.30;;;;;;4912998;29;20425;-74
2022/02/28 07:11:21;;;;;;;32.57;14.20;;;-3.80;96.30;;;;;;4920958;29;20477;-76
2022/02/28 07:13:47;;;;;;;29.93;12.90;;;-3.80;96.30;;;;;;4900955;29;20918;-75
2022/02/28 07:16:15;;;;;;;24.73;12.43;;;-3.60;96.30;;;;;;4917844;29;20223;-74
2022/02/28 07:18:41;;;;;;;25.70;12.50;;;-3.60;96.30;;;;;;4907600;29;20439;-74
2022/02/28 07:21:06;;;;;;;20.07;12.10;;;-3.60;96.30;;;;;;4917874;29;20440;-74
2022/02/28 07:23:33;;;;;;;23.00;13.00;;;-3.60;96.30;;;;;;4917705;29;20216;-74
2022/02/28 07:25:58;;;;;;;25.17;13.53;;;-3.50;96.30;;;;;;4917690;29;20269;-74
2022/02/28 07:28:24;;;;;;;29.20;14.40;;;-3.50;96.30;;;;;;4920725;29;20834;-74
2022/02/28 07:30:49;;;;;;;31.47;14.00;;;-3.40;96.30;;;;;;4922046;29;20260;-74
2022/02/28 07:33:15;;;;;;;26.10;13.07;;;-3.30;96.30;;;;;;4934495;29;20168;-75
2022/02/28 07:35:41;;;;;;;18.43;11.00;;;-3.20;96.30;;;;;;4936296;29;20606;-74
2022/02/28 07:38:06;;;;;;;19.97;12.43;;;-3.30;96.30;;;;;;4915786;29;20188;-74
2022/02/28 07:40:32;;;;;;;21.83;10.60;;;-3.30;96.30;;;;;;4917605;29;20200;-74
2022/02/28 07:42:58;;;;;;;26.60;12.60;;;-3.20;96.30;;;;;;4917580;29;20200;-74
2022/02/28 07:45:24;;;;;;;20.57;11.60;;;-3.20;96.30;;;;;;4917852;29;20277;-74
2022/02/28 07:47:50;;;;;;;20.80;12.07;;;-3.30;96.30;;;;;;4929819;29;20936;-74
2022/02/28 07:50:16;;;;;;;18.27;11.13;;;-3.30;96.30;;;;;;4922866;29;20173;-75
2022/02/28 07:52:41;;;;;;;21.93;11.37;;;-3.20;96.30;;;;;;4900641;29;20411;-74
2022/02/28 07:55:07;;;;;;;20.33;12.50;;;-3.10;96.30;;;;;;4917613;29;20223;-75
2022/02/28 07:57:33;;;;;;;18.67;11.37;;;-3.00;96.30;;;;;;4917193;29;20184;-74
2022/02/28 07:59:58;;;;;;;22.77;13.63;;;-2.90;96.30;;;;;;4917400;29;20417;-74
2022/02/28 08:02:24;;;;;;;28.80;14.00;;;-2.80;96.30;;;;;;4917510;29;20312;-75
2022/02/28 08:04:50;;;;;;;24.30;13.10;;;-2.80;96.30;;;;;;4912536;29;20176;-78
2022/02/28 08:07:16;;;;;;;25.50;11.20;;;-2.40;96.30;;;;;;4914782;29;20479;-74
2022/02/28 08:09:41;;;;;;;23.17;12.17;;;-2.30;96.30;;;;;;4936290;29;20175;-74
2022/02/28 08:12:07;;;;;;;22.40;12.07;;;-2.10;96.30;;;;;;4936245;29;20535;-75
2022/02/28 08:14:32;;;;;;;25.77;11.73;;;-1.80;96.30;;;;;;4902466;29;20196;-74
2022/02/28 08:16:58;;;;;;;27.33;15.10;;;-1.60;96.30;;;;;;4921320;29;20177;-74
2022/02/28 08:19:23;;;;;;;22.37;12.23;;;-1.60;96.30;;;;;;4916851;29;20177;-74
2022/02/28 08:21:49;;;;;;;25.70;13.67;;;-1.80;96.30;;;;;;4916813;29;20204;-75
2022/02/28 08:24:14;;;;;;;23.40;13.43;;;-1.80;96.30;;;;;;4917374;29;20282;-74
2022/02/28 08:26:41;;;;;;;20.90;12.00;;;-1.60;96.30;;;;;;4926191;29;20179;-74
2022/02/28 08:29:06;;;;;;;22.00;11.90;;;-1.60;96.30;;;;;;4913102;29;20544;-75
2022/02/28 08:31:32;;;;;;;21.27;10.87;;;-1.60;96.30;;;;;;4920250;29;20450;-74
2022/02/28 08:33:57;;;;;;;22.07;12.47;;;-1.30;96.30;;;;;;4920091;29;20728;-75
2022/02/28 08:36:23;;;;;;;24.77;12.23;;;-1.30;96.30;;;;;;4935803;29;20262;-76
2022/02/28 08:38:50;;;;;;;20.57;11.57;;;-1.30;96.30;;;;;;4918382;29;20218;-75
2022/02/28 08:41:16;;;;;;;22.23;11.23;;;-1.30;96.30;;;;;;4918595;29;20204;-76
2022/02/28 08:43:41;;;;;;;22.63;11.60;;;-1.20;96.30;;;;;;4935355;29;20455;-75
2022/02/28 08:46:08;;;;;;;20.77;12.10;;;-1.20;96.30;;;;;;4935712;29;21007;-74
2022/02/28 08:48:35;;;;;;;20.57;12.10;;;-1.10;96.30;;;;;;4935257;29;20179;-74
2022/02/28 08:51:00;;;;;;;23.17;14.27;;;-1.10;96.30;;;;;;4935358;29;20518;-76
2022/02/28 08:53:26;;;;;;;24.10;11.77;;;-1.10;96.30;;;;;;4918522;29;20447;-78
2022/02/28 08:55:51;;;;;;;22.50;10.70;;;-1.10;96.30;;;;;;4935430;29;20846;-77
2022/02/28 08:58:17;;;;;;;20.83;12.37;;;-1.10;96.30;;;;;;4907256;29;20187;-77
2022/02/28 09:00:42;;;;;;;25.70;11.43;;;-1.00;96.30;;;;;;4929915;29;20218;-76
2022/02/28 09:03:08;;;;;;;25.20;12.13;;;-1.00;96.30;;;;;;4931139;29;20205;-78
2022/02/28 09:05:37;;;;;;;19.33;11.30;;;-1.00;96.30;;;;;;4902712;29;20654;-76
2022/02/28 09:08:03;;;;;;;24.37;11.90;;;-1.00;96.30;;;;;;4893722;29;20215;-76
2022/02/28 09:10:29;;;;;;;23.47;11.60;;;-1.00;96.30;;;;;;4931503;29;20423;-76
2022/02/28 09:12:55;;;;;;;23.20;11.00;;;-0.80;96.30;;;;;;4935080;29;20767;-76
2022/02/28 09:15:20;;;;;;;23.93;11.00;;;-0.70;96.30;;;;;;4935239;29;20215;-77
2022/02/28 09:17:46;;;;;;;23.50;12.17;;;-0.60;96.30;;;;;;4917799;29;20419;-77
2022/02/28 09:20:12;;;;;;;20.87;12.93;;;-0.40;96.30;;;;;;4935169;29;20238;-78
2022/02/28 09:22:38;;;;;;;17.17;9.67;;;0.30;96.30;;;;;;4917865;29;20972;-78
2022/02/28 09:25:05;;;;;;;22.47;12.97;;;1.30;96.30;;;;;;4935456;29;20175;-78
2022/02/28 09:27:30;;;;;;;16.27;9.77;;;2.80;96.30;;;;;;4935140;29;20186;-76
2022/02/28 09:29:56;;;;;;;13.93;8.60;;;3.80;96.30;;;;;;4935509;29;20447;-77
2022/02/28 09:32:22;;;;;;;12.90;8.20;;;4.50;96.30;;;;;;4935083;29;20191;-78
2022/02/28 09:34:47;;;;;;;18.07;10.00;;;4.00;96.30;;;;;;4934904;29;20230;-77
2022/02/28 09:37:13;;;;;;;16.63;9.27;;;4.20;96.30;;;;;;4923115;29;20191;-78
2022/02/28 09:39:38;;;;;;;15.63;8.40;;;3.90;96.30;;;;;;4915702;29;20203;-79
2022/02/28 09:42:04;;;;;;;16.33;8.73;;;4.30;96.30;;;;;;4915696;29;20701;-77
2022/02/28 09:44:31;;;;;;;16.80;8.73;;;4.10;96.30;;;;;;4898823;29;20180;-77
2022/02/28 09:46:58;;;;;;;13.43;7.50;;;4.00;96.30;;;;;;4915877;29;20424;-78
2022/02/28 09:49:23;;;;;;;11.33;6.80;;;4.10;96.30;;;;;;4916685;29;20428;-78
2022/02/28 09:51:49;;;;;;;13.97;7.90;;;4.20;96.30;;;;;;4907945;29;20503;-77
2022/02/28 09:54:14;;;;;;;13.23;7.83;;;4.10;96.30;;;;;;4909936;29;20181;-78
2022/02/28 09:56:40;;;;;;;12.67;8.00;;;4.30;96.30;;;;;;4934432;29;20190;-76
2022/02/28 09:59:06;;;;;;;13.00;8.27;;;4.70;96.30;;;;;;4918379;29;20184;-78
2022/02/28 10:01:31;;;;;;;17.53;9.10;;;4.80;96.30;;;;;;4926047;29;20208;-79
2022/02/28 10:03:57;;;;;;;12.07;8.40;;;5.20;96.30;;;;;;4934082;29;20207;-78
2022/02/28 10:06:24;;;;;;;15.30;8.03;;;5.30;96.30;;;;;;4934417;29;20234;-76
2022/02/28 10:08:52;;;;;;;11.33;7.60;;;5.40;96.30;;;;;;4933386;29;20180;-78
2022/02/28 10:11:28;;;;;;;15.10;7.20;;;5.10;96.30;;;;;;4933886;29;20447;-76
2022/02/28 10:13:56;;;;;;;16.73;8.90;;;5.30;96.30;;;;;;4918851;29;20450;-79
2022/02/28 10:16:34;;;;;;;13.20;7.33;;;5.40;96.30;;;;;;4929444;29;20431;-75
2022/02/28 10:19:01;;;;;;;14.43;7.40;;;5.10;96.30;;;;;;4910313;29;20427;-75
2022/02/28 10:21:45;;;;;;;12.03;7.57;;;5.00;96.30;;;;;;4922803;29;20439;-75
2022/02/28 10:24:19;;;;;;;16.47;7.93;;;5.30;96.30;;;;;;4934152;29;20474;-75
2022/02/28 10:26:47;;;;;;;14.20;7.00;;;5.30;96.30;;;;;;4916666;29;20484;-75
2022/02/28 10:29:15;;;;;;;14.47;6.83;;;4.90;95.30;;;;;;4914334;29;20496;-74
2022/02/28 10:31:43;;;;;;;14.13;7.67;;;4.80;95.40;;;;;;4917576;29;20435;-74
2022/02/28 10:34:21;;;;;;;15.70;8.20;;;4.90;96.30;;;;;;4919136;29;20416;-74
2022/02/28 10:37:04;;;;;;;15.77;7.27;;;4.80;96.30;;;;;;4919060;29;20396;-74
2022/02/28 10:39:42;;;;;;;12.70;6.53;;;4.80;96.30;;;;;;4918889;29;20412;-75
2022/02/28 10:42:15;;;;;;;12.17;7.33;;;5.20;96.30;;;;;;4935054;29;20438;-75
2022/02/28 10:44:41;;;;;;;13.67;8.57;;;5.00;96.30;;;;;;4937854;29;20502;-74
2022/02/28 10:47:09;;;;;;;8.60;6.10;;;5.00;96.30;;;;;;4937859;29;20415;-74
2022/02/28 10:49:36;;;;;;;12.70;6.03;;;4.50;96.30;;;;;;4937679;29;20403;-74
2022/02/28 10:52:10;;;;;;;9.57;5.67;;;4.10;96.30;;;;;;4937839;29;20439;-75
2022/02/28 10:54:41;;;;;;;7.67;5.47;;;4.60;96.30;;;;;;4937802;29;20399;-74
2022/02/28 10:57:15;;;;;;;12.73;6.93;;;4.70;96.30;;;;;;4937413;29;20450;-75
2022/02/28 10:59:59;;;;;;;13.90;7.37;;;4.60;96.30;;;;;;4918325;29;20428;-74
2022/02/28 11:02:27;;;;;;;12.93;8.07;;;4.30;96.30;;;;;;4933657;29;20870;-75
2022/02/28 11:05:15;;;;;;;14.83;8.17;;;4.30;96.30;;;;;;4920577;29;20427;-74
2022/02/28 11:07:41;;;;;;;9.50;5.80;;;4.50;96.30;;;;;;4937376;29;20412;-73
2022/02/28 11:10:07;;;;;;;15.40;7.37;;;4.70;96.30;;;;;;4922095;29;20416;-73
2022/02/28 11:12:33;;;;;;;12.40;7.90;;;5.00;96.30;;;;;;4916136;29;20440;-75
2022/02/28 11:15:05;;;;;;;15.43;7.70;;;4.80;96.30;;;;;;4912823;29;20792;-77
2022/02/28 11:17:32;;;;;;;9.30;6.40;;;4.80;96.30;;;;;;4919856;29;20985;-77
2022/02/28 11:19:59;;;;;;;10.03;4.97;;;4.90;96.30;;;;;;4918291;29;20444;-74
2022/02/28 11:22:27;;;;;;;9.70;6.10;;;4.70;96.30;;;;;;4901701;29;20467;-75
2022/02/28 11:24:55;;;;;;;11.57;6.30;;;4.60;96.30;;;;;;4900489;29;20483;-76
2022/02/28 11:27:22;;;;;;;12.87;7.00;;;4.80;96.30;;;;;;4918378;29;20420;-75
2022/02/28 11:29:55;;;;;;;10.80;5.90;;;5.10;96.30;;;;;;4907881;29;20446;-74
2022/02/28 11:32:23;;;;;;;13.00;7.33;;;4.80;96.30;;;;;;4920766;29;20444;-74
2022/02/28 11:34:50;;;;;;;10.20;6.53;;;4.90;96.30;;;;;;4925727;29;20869;-76
2022/02/28 11:37:24;;;;;;;10.90;6.60;;;5.00;96.30;;;;;;4925108;29;20435;-75
2022/02/28 11:39:52;;;;;;;10.77;7.37;;;5.10;96.30;;;;;;4909261;29;20467;-75
2022/02/28 11:42:56;;;;;;;8.83;5.83;;;5.10;96.30;;;;;;4931173;29;20456;-75
2022/02/28 11:45:22;;;;;;;9.83;6.37;;;5.00;96.30;;;;;;4929137;29;20937;-76
2022/02/28 11:48:09;;;;;;;8.23;5.40;;;4.60;96.30;;;;;;4917743;29;20451;-75
2022/02/28 11:51:06;;;;;;;12.10;6.77;;;4.90;96.30;;;;;;4918240;29;20231;-75
2022/02/28 11:53:44;;;;;;;11.17;6.80;;;4.90;96.30;;;;;;4917590;29;20504;-74
2022/02/28 11:56:16;;;;;;;15.03;7.30;;;5.00;96.30;;;;;;4914562;29;20801;-76
2022/02/28 11:58:59;;;;;;;10.00;6.57;;;4.80;96.30;;;;;;4935475;29;20502;-74
2022/02/28 12:01:34;;;;;;;9.90;6.70;;;4.90;96.30;;;;;;4921642;29;20496;-75
2022/02/28 12:04:11;;;;;;;11.13;7.20;;;4.80;96.30;;;;;;4917512;29;20463;-74
2022/02/28 12:06:52;;;;;;;10.50;6.67;;;5.10;96.30;;;;;;4918890;29;20969;-77
2022/02/28 12:09:33;;;;;;;12.30;7.17;;;5.10;96.30;;;;;;4917239;29;20480;-74
2022/02/28 12:12:12;;;;;;;10.00;6.67;;;5.00;96.30;;;;;;4918456;29;20547;-76
2022/02/28 12:14:56;;;;;;;11.53;7.53;;;5.00;96.30;;;;;;4915664;29;20417;-74
2022/02/28 12:17:40;;;;;;;8.60;6.80;;;5.30;96.30;;;;;;4917213;29;20418;-75
2022/02/28 12:20:19;;;;;;;11.07;7.00;;;5.20;96.30;;;;;;4917876;29;20444;-74
2022/02/28 12:23:08;;;;;;;10.87;7.80;;;5.40;96.30;;;;;;4917081;29;20448;-75
2022/02/28 12:25:40;;;;;;;10.23;6.17;;;5.60;96.30;;;;;;4913221;29;20424;-74
2022/02/28 12:28:34;;;;;;;9.30;6.50;;;5.30;93.90;;;;;;4935825;29;20889;-74
2022/02/28 12:31:16;;;;;;;11.47;6.97;;;5.20;93.90;;;;;;4929835;29;20454;-75
2022/02/28 12:33:42;;;;;;;12.47;6.83;;;5.00;93.80;;;;;;4935995;29;20419;-74
2022/02/28 12:36:17;;;;;;;9.10;6.13;;;4.90;93.70;;;;;;4911856;29;20448;-76
2022/02/28 12:38:49;;;;;;;9.90;6.43;;;4.50;95.10;;;;;;4918599;29;20171;-74
2022/02/28 12:41:17;;;;;;;13.00;7.40;;;4.60;96.30;;;;;;4932340;29;20436;-74
2022/02/28 12:43:44;;;;;;;9.50;6.73;;;5.00;95.90;;;;;;4934220;29;20466;-75
2022/02/28 12:46:13;;;;;;;7.90;5.10;;;5.20;96.00;;;;;;4935499;29;20511;-75
2022/02/28 12:48:41;;;;;;;14.37;7.60;;;4.80;93.30;;;;;;4935426;29;20769;-74
2022/02/28 12:51:08;;;;;;;10.70;7.40;;;5.00;94.80;;;;;;4935336;29;20432;-74
2022/02/28 12:53:36;;;;;;;11.43;6.40;;;5.40;90.40;;;;;;4934937;29;20510;-74
2022/02/28 12:56:07;;;;;;;12.77;6.73;;;5.30;90.70;;;;;;4935596;29;20415;-74
2022/02/28 12:58:35;;;;;;;16.03;7.00;;;4.70;93.20;;;;;;4935385;29;20447;-75
2022/02/28 13:01:25;;;;;;;12.33;6.87;;;4.80;94.20;;;;;;4935491;29;20439;-75
2022/02/28 13:03:55;;;;;;;12.20;6.50;;;5.10;94.50;;;;;;4935426;29;20451;-75
2022/02/28 13:06:25;;;;;;;11.70;7.70;;;5.40;92.40;;;;;;4918268;29;20427;-75
2022/02/28 13:09:11;;;;;;;8.40;5.47;;;5.60;93.00;;;;;;4935136;29;20430;-75
2022/02/28 13:11:45;;;;;;;10.10;6.47;;;5.40;90.50;;;;;;4935376;29;20431;-74
2022/02/28 13:14:12;;;;;;;6.83;5.10;;;5.20;90.80;;;;;;4915379;29;20479;-76
2022/02/28 13:16:49;;;;;;;9.70;5.53;;;4.90;91.70;;;;;;4928761;29;20467;-75
2022/02/28 13:19:20;;;;;;;13.93;7.20;;;4.70;93.30;;;;;;4912750;29;20620;-76
2022/02/28 13:21:56;;;;;;;12.50;7.30;;;4.70;93.00;;;;;;4913460;29;20447;-74
2022/02/28 13:24:25;;;;;;;9.30;5.97;;;4.80;92.60;;;;;;4934881;29;21031;-75
2022/02/28 13:26:51;;;;;;;11.20;6.67;;;4.80;92.10;;;;;;4905165;29;20441;-74
2022/02/28 13:29:19;;;;;;;12.60;6.27;;;4.80;91.80;;;;;;4915033;29;20439;-74
2022/02/28 13:31:58;;;;;;;9.00;6.07;;;4.60;90.90;;;;;;4935052;29;20439;-74
2022/02/28 13:34:26;;;;;;;12.00;5.33;;;4.60;90.60;;;;;;4934845;29;20439;-74
2022/02/28 13:36:57;;;;;;;12.63;5.50;;;4.30;90.60;;;;;;4934870;29;20795;-74
2022/02/28 13:39:28;;;;;;;9.90;5.10;;;4.40;91.80;;;;;;4917597;29;20419;-74
2022/02/28 13:41:56;;;;;;;8.20;5.20;;;4.40;92.00;;;;;;4934762;29;20448;-75
2022/02/28 13:44:25;;;;;;;11.67;7.07;;;4.50;91.90;;;;;;4934564;29;20470;-74
2022/02/28 13:46:52;;;;;;;12.23;6.07;;;4.60;93.10;;;;;;4934804;29;20426;-74
2022/02/28 13:49:18;;;;;;;9.93;5.87;;;4.40;91.10;;;;;;4934527;29;20427;-74
2022/02/28 13:51:44;;;;;;;11.73;5.90;;;4.50;91.80;;;;;;4934701;29;20854;-74
2022/02/28 13:54:12;;;;;;;9.50;6.87;;;4.40;91.30;;;;;;4934689;29;20525;-74
2022/02/28 13:56:39;;;;;;;7.63;5.40;;;4.50;89.90;;;;;;4917608;29;20187;-74
2022/02/28 13:59:10;;;;;;;10.10;7.63;;;4.30;90.60;;;;;;4934314;29;20415;-75
2022/02/28 14:01:51;;;;;;;10.23;6.13;;;4.50;91.70;;;;;;4934567;29;20447;-75
2022/02/28 14:04:17;;;;;;;7.00;5.47;;;4.30;91.90;;;;;;4935048;29;20525;-75
2022/02/28 14:06:43;;;;;;;7.67;5.70;;;4.40;91.90;;;;;;4940956;29;20913;-74
2022/02/28 14:09:08;;;;;;;10.70;5.60;;;4.30;91.90;;;;;;4940732;29;20207;-77
2022/02/28 14:11:35;;;;;;;9.10;5.67;;;4.10;90.70;;;;;;4923874;29;20835;-73
2022/02/28 14:14:01;;;;;;;9.97;6.27;;;4.30;91.00;;;;;;4923790;29;20290;-74
2022/02/28 14:16:33;;;;;;;14.23;7.10;;;4.50;90.60;;;;;;4940902;29;21107;-74
2022/02/28 14:19:18;;;;;;;10.13;7.60;;;4.50;90.90;;;;;;4940341;29;20434;-74
2022/02/28 14:21:45;;;;;;;8.20;5.37;;;4.80;91.00;;;;;;4941026;29;20435;-74
2022/02/28 14:24:13;;;;;;;4.80;3.70;;;4.70;90.30;;;;;;4923679;29;20467;-75
2022/02/28 14:26:41;;;;;;;8.77;5.87;;;4.20;89.10;;;;;;4940855;29;20502;-74
2022/02/28 14:29:10;;;;;;;7.70;5.00;;;4.10;90.00;;;;;;4940466;29;20455;-74
2022/02/28 14:31:55;;;;;;;9.87;6.23;;;4.30;88.30;;;;;;4923586;29;20435;-77
2022/02/28 14:34:23;;;;;;;10.70;5.50;;;4.60;88.80;;;;;;4940672;29;20443;-75
2022/02/28 14:36:49;;;;;;;9.53;5.43;;;4.60;88.00;;;;;;4940532;29;20424;-75
2022/02/28 14:39:17;;;;;;;8.33;5.80;;;4.30;87.80;;;;;;4940507;29;20921;-76
2022/02/28 14:41:44;;;;;;;9.27;5.77;;;4.20;88.80;;;;;;4940631;29;20855;-75
2022/02/28 14:44:10;;;;;;;8.23;5.37;;;4.30;88.30;;;;;;4923481;29;20467;-75
2022/02/28 14:46:38;;;;;;;6.73;4.30;;;4.30;87.20;;;;;;4940693;29;20412;-76
2022/02/28 14:49:07;;;;;;;7.03;4.30;;;4.00;86.70;;;;;;4940329;29;20414;-75
2022/02/28 14:51:34;;;;;;;4.30;3.00;;;4.00;86.90;;;;;;4923364;29;20821;-75
2022/02/28 14:54:00;;;;;;;8.77;4.13;;;3.70;86.50;;;;;;4940547;29;20411;-74
2022/02/28 14:56:26;;;;;;;7.67;4.50;;;3.90;86.50;;;;;;4940508;29;20499;-75
2022/02/28 14:58:52;;;;;;;7.83;5.00;;;3.80;85.80;;;;;;4940160;29;20414;-75
2022/02/28 15:01:18;;;;;;;6.90;4.33;;;3.80;84.10;;;;;;4940423;29;20435;-74
2022/02/28 15:03:43;;;;;;;5.73;3.97;;;3.80;83.40;;;;;;4923171;29;20703;-75
2022/02/28 15:06:09;;;;;;;5.57;3.67;;;3.80;83.70;;;;;;4940529;29;20179;-75
2022/02/28 15:08:35;;;;;;;4.90;3.87;;;3.80;83.60;;;;;;4940128;29;20254;-75
2022/02/28 15:11:01;;;;;;;5.73;4.30;;;3.80;83.40;;;;;;4939970;29;20207;-75
2022/02/28 15:13:27;;;;;;;5.27;3.13;;;3.80;83.80;;;;;;4940178;29;20429;-76
2022/02/28 15:15:53;;;;;;;7.37;4.27;;;3.50;83.40;;;;;;4922540;29;20288;-74
2022/02/28 15:18:19;;;;;;;6.40;4.17;;;3.60;83.90;;;;;;4936754;29;20672;-74
2022/02/28 15:20:45;;;;;;;6.83;4.73;;;3.30;83.40;;;;;;4937237;29;20200;-74
2022/02/28 15:23:11;;;;;;;9.60;5.30;;;3.30;83.20;;;;;;4937180;29;21036;-76
2022/02/28 15:25:37;;;;;;;8.20;4.90;;;3.30;83.10;;;;;;4936958;29;20416;-74
2022/02/28 15:28:04;;;;;;;7.67;4.33;;;3.20;82.40;;;;;;4936736;29;20527;-75
2022/02/28 15:30:29;;;;;;;7.60;3.10;;;3.20;82.40;;;;;;4936923;29;20427;-76
2022/02/28 15:32:56;;;;;;;9.60;5.83;;;3.00;80.70;;;;;;4936865;29;20430;-74
2022/02/28 15:35:22;;;;;;;5.20;4.00;;;3.00;81.80;;;;;;4937235;29;20178;-74
2022/02/28 15:37:48;;;;;;;8.87;5.17;;;2.90;80.80;;;;;;4919896;29;20419;-76
2022/02/28 15:40:14;;;;;;;8.13;3.87;;;2.90;81.10;;;;;;4937011;29;20540;-75
2022/02/28 15:42:40;;;;;;;7.93;3.60;;;2.90;82.00;;;;;;4936853;29;20957;-75
2022/02/28 15:45:06;;;;;;;9.00;4.70;;;2.80;81.70;;;;;;4937268;29;20210;-74
2022/02/28 15:47:32;;;;;;;6.80;3.20;;;2.80;82.10;;;;;;4936139;29;20175;-75
2022/02/28 15:49:58;;;;;;;4.47;3.00;;;2.80;82.70;;;;;;4937224;29;20933;-74
2022/02/28 15:52:24;;;;;;;5.90;3.23;;;2.70;82.80;;;;;;4937168;29;20195;-74
2022/02/28 15:54:50;;;;;;;4.77;3.43;;;2.60;83.20;;;;;;4937070;29;20471;-74
2022/02/28 15:57:16;;;;;;;8.67;4.83;;;2.60;83.60;;;;;;4937075;29;20199;-74
2022/02/28 15:59:42;;;;;;;9.80;4.93;;;2.50;84.10;;;;;;4936642;29;20494;-74
2022/02/28 16:02:08;;;;;;;8.83;4.70;;;2.40;84.90;;;;;;4936633;29;20196;-74
2022/02/28 16:04:34;;;;;;;9.57;5.20;;;2.30;84.80;;;;;;4936897;29;20199;-74
2022/02/28 16:07:00;;;;;;;12.80;5.57;;;2.20;85.00;;;;;;4936803;29;20420;-75
2022/02/28 16:09:25;;;;;;;10.37;5.27;;;2.10;85.30;;;;;;4936691;29;20697;-75
2022/02/28 16:11:51;;;;;;;6.30;4.40;;;2.00;85.90;;;;;;4936481;29;20744;-75
2022/02/28 16:14:17;;;;;;;6.50;4.70;;;2.00;86.60;;;;;;4936532;29;20183;-74
2022/02/28 16:16:43;;;;;;;13.60;5.40;;;1.80;87.50;;;;;;4936539;29;20218;-75
2022/02/28 16:19:10;;;;;;;16.20;5.03;;;1.70;87.90;;;;;;4936239;29;20422;-75
2022/02/28 16:21:35;;;;;;;6.30;3.60;;;1.60;88.10;;;;;;4936334;29;20486;-75
2022/02/28 16:24:01;;;;;;;8.53;4.00;;;1.60;88.00;;;;;;4919206;29;21062;-75
2022/02/28 16:26:28;;;;;;;18.37;10.30;;;1.50;88.30;;;;;;4918077;29;20268;-75
2022/02/28 16:28:53;;;;;;;17.50;6.20;;;1.50;89.50;;;;;;4915810;29;20196;-75
2022/02/28 16:31:20;;;;;;;10.10;6.00;;;1.40;90.70;;;;;;4917105;29;20470;-74
2022/02/28 16:33:46;;;;;;;8.37;4.67;;;1.30;91.60;;;;;;4900265;29;20176;-74
2022/02/28 16:36:12;;;;;;;9.17;5.23;;;1.20;92.70;;;;;;4917175;29;20471;-75
2022/02/28 16:38:38;;;;;;;12.80;5.80;;;1.10;94.00;;;;;;4916978;29;20412;-75
2022/02/28 16:41:04;;;;;;;12.23;6.80;;;1.00;95.40;;;;;;4918144;29;20711;-75
2022/02/28 16:43:29;;;;;;;10.20;5.30;;;1.00;96.30;;;;;;4932013;29;20455;-75
2022/02/28 16:45:56;;;;;;;11.20;6.03;;;0.90;96.30;;;;;;4915447;29;20176;-75
2022/02/28 16:48:23;;;;;;;11.47;6.40;;;0.80;96.30;;;;;;4916856;29;20179;-75
2022/02/28 16:50:49;;;;;;;16.13;7.67;;;0.70;96.30;;;;;;4923827;29;21850;-75
2022/02/28 16:53:14;;;;;;;11.87;5.33;;;0.60;96.30;;;;;;4931815;29;20479;-77
2022/02/28 16:55:40;;;;;;;13.20;7.27;;;0.50;96.30;;;;;;4924767;29;20901;-77